Time;durP1;ratioP1;P1;durP2;ratioP2;P2;SDS_P1;SDS_P2;PMS_P1;PMS_P2;Temp;Humidity;BMP_temperature;BMP_pressure;BME280_temperature;BME280_humidity;BME280_pressure;Samples;Min_cycle;Max_cycle;Signal;HPM_P1;HPM_P2
2021/09/03 00:01:20;;;;;;;8.57;4.82;;;17.40;89.10;;;;;;5053365;28;20017;-76
2021/09/03 00:03:46;;;;;;;10.13;4.63;;;17.40;89.10;;;;;;5052579;28;20025;-76
2021/09/03 00:06:12;;;;;;;10.30;5.00;;;17.40;89.20;;;;;;5051835;28;20021;-76
2021/09/03 00:08:38;;;;;;;11.70;5.82;;;17.40;89.20;;;;;;5053470;28;20348;-76
2021/09/03 00:11:04;;;;;;;8.02;4.70;;;17.40;89.20;;;;;;5052580;28;20021;-75
2021/09/03 00:13:30;;;;;;;11.25;4.80;;;17.30;89.30;;;;;;5052918;28;20044;-75
2021/09/03 00:15:55;;;;;;;11.10;5.03;;;17.40;89.40;;;;;;5051138;28;20025;-76
2021/09/03 00:18:21;;;;;;;9.00;4.85;;;17.40;89.40;;;;;;5050572;28;20503;-76
2021/09/03 00:20:47;;;;;;;10.25;4.82;;;17.30;89.50;;;;;;5051302;28;20075;-75
2021/09/03 00:23:13;;;;;;;9.35;4.07;;;17.30;89.50;;;;;;5053369;28;20092;-77
2021/09/03 00:25:39;;;;;;;10.00;4.57;;;17.30;89.50;;;;;;5053041;28;20457;-77
2021/09/03 00:28:05;;;;;;;11.63;4.32;;;17.30;89.60;;;;;;5051131;28;20108;-75
2021/09/03 00:30:31;;;;;;;10.07;4.50;;;17.30;89.60;;;;;;5051893;28;20040;-76
2021/09/03 00:32:56;;;;;;;10.90;4.70;;;17.30;89.60;;;;;;5052673;28;20020;-76
2021/09/03 00:35:22;;;;;;;9.80;4.75;;;17.30;89.70;;;;;;5053073;28;20067;-77
2021/09/03 00:37:48;;;;;;;11.80;5.30;;;17.30;89.80;;;;;;5052253;28;20079;-76
2021/09/03 00:40:14;;;;;;;9.68;5.35;;;17.30;89.90;;;;;;5052802;28;20102;-75
2021/09/03 00:42:39;;;;;;;10.48;4.75;;;17.20;89.80;;;;;;5036853;28;20094;-77
2021/09/03 00:45:06;;;;;;;8.68;4.60;;;17.20;89.90;;;;;;5032353;28;20513;-75
2021/09/03 00:47:31;;;;;;;9.48;5.25;;;17.20;89.90;;;;;;5031724;28;20017;-76
2021/09/03 00:49:57;;;;;;;11.52;4.43;;;17.20;90.00;;;;;;5030823;28;20354;-75
2021/09/03 00:52:23;;;;;;;11.00;4.93;;;17.20;90.00;;;;;;5032805;28;20357;-75
2021/09/03 00:54:49;;;;;;;11.15;5.25;;;17.10;90.00;;;;;;5033448;28;20021;-76
2021/09/03 00:57:17;;;;;;;10.88;5.50;;;17.10;90.10;;;;;;5032782;28;20455;-76
2021/09/03 00:59:42;;;;;;;10.10;5.05;;;17.10;90.10;;;;;;5032158;28;20017;-77
2021/09/03 01:02:08;;;;;;;12.48;5.30;;;17.10;90.10;;;;;;5031061;28;20285;-75
2021/09/03 01:04:34;;;;;;;8.85;4.97;;;17.10;90.10;;;;;;5032910;28;20407;-75
2021/09/03 01:07:00;;;;;;;11.02;5.38;;;17.10;90.10;;;;;;5031613;28;20017;-76
2021/09/03 01:09:25;;;;;;;11.20;5.22;;;17.10;90.20;;;;;;5032310;28;20032;-75
2021/09/03 01:11:51;;;;;;;10.88;5.03;;;17.00;90.20;;;;;;5037174;28;20107;-75
2021/09/03 01:14:17;;;;;;;8.65;4.95;;;17.10;90.20;;;;;;5052219;28;20096;-75
2021/09/03 01:16:43;;;;;;;10.88;5.10;;;17.00;90.20;;;;;;5051585;28;20101;-75
2021/09/03 01:19:08;;;;;;;12.98;5.97;;;17.00;90.20;;;;;;5051740;28;20021;-76
2021/09/03 01:21:34;;;;;;;13.10;5.47;;;17.00;90.20;;;;;;5052708;28;20021;-76
2021/09/03 01:24:00;;;;;;;9.98;5.43;;;17.00;90.30;;;;;;5050361;28;20013;-76
2021/09/03 01:26:26;;;;;;;12.23;5.65;;;16.90;90.20;;;;;;5051988;28;20025;-75
2021/09/03 01:28:52;;;;;;;12.20;5.65;;;16.90;90.30;;;;;;5049944;28;20025;-76
2021/09/03 01:31:18;;;;;;;10.73;5.30;;;16.90;90.30;;;;;;5052219;28;20025;-75
2021/09/03 01:33:43;;;;;;;13.32;5.97;;;16.90;90.30;;;;;;5051957;28;20349;-75
2021/09/03 01:36:09;;;;;;;12.23;5.97;;;16.90;90.40;;;;;;5049913;28;20405;-75
2021/09/03 01:38:37;;;;;;;11.13;5.63;;;16.90;90.40;;;;;;5051822;28;20449;-75
2021/09/03 01:41:03;;;;;;;13.57;6.25;;;16.90;90.40;;;;;;5049905;28;20060;-76
2021/09/03 01:43:28;;;;;;;10.23;5.68;;;16.90;90.70;;;;;;5049961;28;20464;-75
2021/09/03 01:45:54;;;;;;;11.77;5.40;;;16.90;90.40;;;;;;5049836;28;20021;-76
2021/09/03 01:48:20;;;;;;;14.45;5.70;;;16.80;90.40;;;;;;5051925;28;20025;-75
2021/09/03 01:50:46;;;;;;;13.30;5.97;;;16.80;90.40;;;;;;5050341;28;20119;-76
2021/09/03 01:53:11;;;;;;;11.02;5.72;;;16.80;90.50;;;;;;5051140;28;20032;-75
2021/09/03 01:55:37;;;;;;;13.10;5.70;;;16.80;90.50;;;;;;5051488;28;20021;-75
2021/09/03 01:58:03;;;;;;;15.50;5.63;;;16.80;90.50;;;;;;5049672;28;20021;-76
2021/09/03 02:00:28;;;;;;;11.95;5.85;;;16.80;90.50;;;;;;5050261;28;20017;-75
2021/09/03 02:02:54;;;;;;;10.55;5.15;;;16.80;90.50;;;;;;5049656;28;20028;-76
2021/09/03 02:05:20;;;;;;;13.55;5.22;;;16.80;90.50;;;;;;5051672;28;20022;-75
2021/09/03 02:07:45;;;;;;;11.43;5.22;;;16.70;90.50;;;;;;5051584;28;20025;-75
2021/09/03 02:10:11;;;;;;;11.50;6.57;;;16.70;90.50;;;;;;5050963;28;20029;-75
2021/09/03 02:12:37;;;;;;;12.15;5.65;;;16.70;90.50;;;;;;5050261;28;20025;-75
2021/09/03 02:15:04;;;;;;;12.40;5.93;;;16.70;90.60;;;;;;5050886;28;20473;-76
2021/09/03 02:17:29;;;;;;;10.57;5.75;;;16.70;90.60;;;;;;5049850;28;20388;-76
2021/09/03 02:19:55;;;;;;;13.55;6.28;;;16.60;90.60;;;;;;5050852;28;20036;-76
2021/09/03 02:22:21;;;;;;;15.15;6.10;;;16.60;90.60;;;;;;5051434;28;20028;-75
2021/09/03 02:24:46;;;;;;;12.40;6.35;;;16.60;90.60;;;;;;5051436;28;20065;-75
2021/09/03 02:27:12;;;;;;;14.45;6.32;;;16.60;90.60;;;;;;5050518;28;20032;-75
2021/09/03 02:29:38;;;;;;;12.10;6.03;;;16.60;90.70;;;;;;5051774;28;20056;-75
2021/09/03 02:32:04;;;;;;;10.85;5.75;;;16.60;90.70;;;;;;5049364;28;20116;-75
2021/09/03 02:34:29;;;;;;;10.77;5.65;;;16.60;90.70;;;;;;5051263;28;20031;-75
2021/09/03 02:36:55;;;;;;;11.10;6.20;;;16.60;90.70;;;;;;5050015;28;20428;-76
2021/09/03 02:39:21;;;;;;;10.23;5.47;;;16.50;90.70;;;;;;5051399;28;20524;-75
2021/09/03 02:41:46;;;;;;;14.50;6.50;;;16.50;90.70;;;;;;5053759;28;20445;-76
2021/09/03 02:44:12;;;;;;;10.82;5.40;;;16.50;90.80;;;;;;5054147;28;20402;-76
2021/09/03 02:46:37;;;;;;;11.38;5.88;;;16.50;90.80;;;;;;5054893;28;20449;-76
2021/09/03 02:49:03;;;;;;;14.27;6.35;;;16.50;90.90;;;;;;5053803;28;20029;-76
2021/09/03 02:51:29;;;;;;;10.30;5.63;;;16.50;90.80;;;;;;5054862;28;20449;-76
2021/09/03 02:53:54;;;;;;;10.73;5.47;;;16.40;90.90;;;;;;5054593;28;20021;-75
2021/09/03 02:56:20;;;;;;;11.38;6.13;;;16.50;90.90;;;;;;5052592;28;20028;-75
2021/09/03 02:58:46;;;;;;;11.05;5.25;;;16.40;90.90;;;;;;5054474;28;20105;-75
2021/09/03 03:01:11;;;;;;;15.00;6.53;;;16.40;90.90;;;;;;5054117;28;20013;-75
2021/09/03 03:03:37;;;;;;;11.73;6.10;;;16.40;90.90;;;;;;5053115;28;20107;-75
2021/09/03 03:06:03;;;;;;;11.80;6.53;;;16.40;90.90;;;;;;5053842;28;20017;-76
2021/09/03 03:08:28;;;;;;;12.43;6.20;;;16.40;90.90;;;;;;5053136;28;20025;-75
2021/09/03 03:10:54;;;;;;;13.93;5.65;;;16.40;91.00;;;;;;5052973;28;20020;-75
2021/09/03 03:13:21;;;;;;;13.85;6.15;;;16.40;91.00;;;;;;5053421;28;20025;-75
2021/09/03 03:15:49;;;;;;;11.98;6.35;;;16.40;91.00;;;;;;5054221;28;20017;-75
2021/09/03 03:18:14;;;;;;;14.10;6.35;;;16.40;91.10;;;;;;5051902;28;20045;-76
2021/09/03 03:20:41;;;;;;;12.35;5.97;;;16.30;91.10;;;;;;5054331;28;20021;-76
2021/09/03 03:23:07;;;;;;;15.80;7.57;;;16.30;91.10;;;;;;5053401;28;20049;-75
2021/09/03 03:25:32;;;;;;;13.88;6.90;;;16.30;91.10;;;;;;5054038;28;20482;-76
2021/09/03 03:27:58;;;;;;;12.98;6.88;;;16.30;91.10;;;;;;5052762;28;20086;-76
2021/09/03 03:30:24;;;;;;;15.05;6.22;;;16.20;91.10;;;;;;5053501;28;20086;-75
2021/09/03 03:32:49;;;;;;;12.32;6.60;;;16.30;91.20;;;;;;5052577;28;20043;-76
2021/09/03 03:35:15;;;;;;;15.05;6.05;;;16.20;91.10;;;;;;5053301;28;20024;-76
2021/09/03 03:37:41;;;;;;;13.23;7.10;;;16.20;91.20;;;;;;5053501;28;20036;-75
2021/09/03 03:40:07;;;;;;;13.10;6.15;;;16.20;91.20;;;;;;5053217;28;20089;-76
2021/09/03 03:42:33;;;;;;;13.00;6.38;;;16.20;91.20;;;;;;5053729;28;20151;-75
2021/09/03 03:44:59;;;;;;;13.05;7.10;;;16.10;91.20;;;;;;5052506;28;20100;-76
2021/09/03 03:47:24;;;;;;;17.60;7.28;;;16.10;91.20;;;;;;5053486;28;20059;-75
2021/09/03 03:49:50;;;;;;;14.43;6.97;;;16.10;91.20;;;;;;5053424;28;20021;-75
2021/09/03 03:52:15;;;;;;;14.63;7.03;;;16.10;91.20;;;;;;5047467;28;20036;-77
2021/09/03 03:54:41;;;;;;;12.05;6.10;;;16.10;91.20;;;;;;5037835;28;20025;-76
2021/09/03 03:57:07;;;;;;;14.23;6.88;;;16.00;91.30;;;;;;5041396;28;20090;-77
2021/09/03 03:59:32;;;;;;;14.05;6.75;;;16.00;91.30;;;;;;5040744;28;20104;-77
2021/09/03 04:01:58;;;;;;;14.95;6.90;;;16.00;91.30;;;;;;5039018;28;20052;-76
2021/09/03 04:04:24;;;;;;;16.13;8.05;;;16.00;91.40;;;;;;5042025;28;20094;-76
2021/09/03 04:06:49;;;;;;;13.98;6.90;;;15.90;91.30;;;;;;5043005;28;20123;-76
2021/09/03 04:09:15;;;;;;;15.05;7.75;;;15.90;91.40;;;;;;5032217;28;20021;-76
2021/09/03 04:11:41;;;;;;;13.90;7.05;;;15.90;91.50;;;;;;5033071;28;20439;-76
2021/09/03 04:14:08;;;;;;;14.50;7.25;;;15.90;91.40;;;;;;5038646;28;20473;-76
2021/09/03 04:16:33;;;;;;;13.02;6.65;;;15.90;91.50;;;;;;5040792;28;20462;-76
2021/09/03 04:18:59;;;;;;;16.48;8.13;;;15.90;91.40;;;;;;5040393;28;20025;-76
2021/09/03 04:21:25;;;;;;;14.77;7.95;;;15.90;91.40;;;;;;5040475;28;20030;-76
2021/09/03 04:23:50;;;;;;;16.92;8.40;;;15.90;91.40;;;;;;5041221;28;20025;-77
2021/09/03 04:26:16;;;;;;;18.02;7.65;;;15.90;91.40;;;;;;5042506;28;20025;-76
2021/09/03 04:28:43;;;;;;;14.70;7.85;;;15.90;91.30;;;;;;5047399;28;20127;-76
2021/09/03 04:31:09;;;;;;;13.50;7.28;;;15.80;91.40;;;;;;5051518;28;20076;-76
2021/09/03 04:33:35;;;;;;;14.65;7.47;;;15.80;91.40;;;;;;5052600;28;20055;-76
2021/09/03 04:36:00;;;;;;;12.38;6.60;;;15.80;91.40;;;;;;5052473;28;20032;-76
2021/09/03 04:38:27;;;;;;;14.68;7.65;;;15.80;91.50;;;;;;5039931;28;20439;-76
2021/09/03 04:40:53;;;;;;;15.63;8.15;;;15.80;91.50;;;;;;5032696;28;20032;-75
2021/09/03 04:43:18;;;;;;;14.23;7.60;;;15.80;91.50;;;;;;5050483;28;20021;-76
2021/09/03 04:45:44;;;;;;;17.10;6.63;;;15.80;91.50;;;;;;5044774;28;20032;-74
2021/09/03 04:48:09;;;;;;;14.32;8.10;;;15.80;91.50;;;;;;5031461;28;20462;-74
2021/09/03 04:50:35;;;;;;;14.63;7.45;;;15.80;91.50;;;;;;5036264;28;20346;-74
2021/09/03 04:53:01;;;;;;;15.30;7.75;;;15.80;91.50;;;;;;5032367;28;20480;-75
2021/09/03 04:55:26;;;;;;;15.73;7.97;;;15.80;91.50;;;;;;5031716;28;20502;-74
2021/09/03 04:57:52;;;;;;;13.45;6.95;;;15.80;91.50;;;;;;5030846;28;20037;-75
2021/09/03 05:00:18;;;;;;;15.27;7.20;;;15.80;91.50;;;;;;5031890;28;20034;-74
2021/09/03 05:02:44;;;;;;;14.88;6.78;;;15.80;91.60;;;;;;5032041;28;20076;-74
2021/09/03 05:05:11;;;;;;;17.65;7.68;;;15.70;91.90;;;;;;5031390;28;20200;-74
2021/09/03 05:07:36;;;;;;;12.05;5.55;;;15.70;91.60;;;;;;5031795;28;20449;-74
2021/09/03 05:10:04;;;;;;;15.75;7.57;;;15.70;91.60;;;;;;5032075;28;20049;-75
2021/09/03 05:12:30;;;;;;;18.83;7.88;;;15.70;91.60;;;;;;5031249;28;20026;-75
2021/09/03 05:14:56;;;;;;;14.52;8.48;;;15.70;91.60;;;;;;5031894;28;20067;-75
2021/09/03 05:17:22;;;;;;;13.63;7.03;;;15.70;91.60;;;;;;5031341;28;20059;-75
2021/09/03 05:19:47;;;;;;;14.10;7.30;;;15.70;91.60;;;;;;5030704;28;20120;-74
2021/09/03 05:22:13;;;;;;;15.75;7.93;;;15.70;91.60;;;;;;5029745;28;20547;-74
2021/09/03 05:24:38;;;;;;;13.85;7.53;;;15.70;91.60;;;;;;5030902;28;20021;-74
2021/09/03 05:27:04;;;;;;;14.02;7.30;;;15.70;91.60;;;;;;5031590;28;20032;-75
2021/09/03 05:29:30;;;;;;;13.13;7.40;;;15.70;91.60;;;;;;5029948;28;20022;-74
2021/09/03 05:31:56;;;;;;;18.88;8.18;;;15.80;91.60;;;;;;5030425;28;20053;-74
2021/09/03 05:34:22;;;;;;;17.27;7.10;;;15.80;91.60;;;;;;5029908;28;20021;-74
2021/09/03 05:36:47;;;;;;;17.48;8.23;;;15.80;91.60;;;;;;5030437;28;20355;-74
2021/09/03 05:39:13;;;;;;;16.15;7.93;;;15.70;91.60;;;;;;5031168;28;20064;-74
2021/09/03 05:41:38;;;;;;;17.88;8.43;;;15.80;91.60;;;;;;5031434;28;20476;-74
2021/09/03 05:44:04;;;;;;;15.77;8.50;;;15.70;91.60;;;;;;5031897;28;20486;-75
2021/09/03 05:46:30;;;;;;;15.63;7.32;;;15.70;91.60;;;;;;5029876;28;20109;-75
2021/09/03 05:48:55;;;;;;;20.33;8.27;;;15.80;91.70;;;;;;5030217;28;20026;-75
2021/09/03 05:51:21;;;;;;;15.15;7.57;;;15.80;91.70;;;;;;5031418;28;20112;-75
2021/09/03 05:53:47;;;;;;;17.25;8.20;;;15.80;91.70;;;;;;5030383;28;20021;-75
2021/09/03 05:56:12;;;;;;;17.85;8.38;;;15.80;91.70;;;;;;5030732;28;20033;-75
2021/09/03 05:58:38;;;;;;;18.17;7.78;;;15.80;91.70;;;;;;5031473;28;20038;-75
2021/09/03 06:01:04;;;;;;;13.35;7.50;;;15.90;91.80;;;;;;5031333;28;20029;-75
2021/09/03 06:03:30;;;;;;;14.60;7.97;;;15.90;91.80;;;;;;5029714;28;20053;-75
2021/09/03 06:05:55;;;;;;;15.57;7.50;;;15.90;91.70;;;;;;5031725;28;20099;-75
2021/09/03 06:08:21;;;;;;;14.48;7.18;;;15.90;91.70;;;;;;5029642;28;20084;-75
2021/09/03 06:10:47;;;;;;;15.20;7.82;;;15.90;91.70;;;;;;5031708;28;20075;-75
2021/09/03 06:13:12;;;;;;;17.33;7.50;;;15.90;91.80;;;;;;5029678;28;20025;-75
2021/09/03 06:15:38;;;;;;;14.85;7.22;;;15.90;91.80;;;;;;5032471;28;20032;-75
2021/09/03 06:18:03;;;;;;;14.80;6.53;;;16.00;91.80;;;;;;5035180;28;20049;-75
2021/09/03 06:20:29;;;;;;;19.42;7.75;;;16.00;91.80;;;;;;5034309;28;20026;-75
2021/09/03 06:22:55;;;;;;;14.10;7.50;;;16.00;91.80;;;;;;5035431;28;20022;-75
2021/09/03 06:25:21;;;;;;;17.65;7.45;;;16.00;91.80;;;;;;5034749;28;20421;-75
2021/09/03 06:27:46;;;;;;;17.80;8.00;;;16.00;91.80;;;;;;5035126;28;20040;-75
2021/09/03 06:30:12;;;;;;;14.82;6.82;;;16.10;91.80;;;;;;5033870;28;20029;-75
2021/09/03 06:32:38;;;;;;;13.80;7.65;;;16.10;91.80;;;;;;5035169;28;20121;-75
2021/09/03 06:35:05;;;;;;;18.90;7.07;;;16.10;91.80;;;;;;5034708;28;20097;-75
2021/09/03 06:37:32;;;;;;;16.42;7.85;;;16.10;91.80;;;;;;5034290;28;20075;-75
2021/09/03 06:39:58;;;;;;;14.32;7.22;;;16.20;91.80;;;;;;5035094;28;20017;-75
2021/09/03 06:42:24;;;;;;;12.60;6.80;;;16.20;91.80;;;;;;5034317;28;20484;-75
2021/09/03 06:44:51;;;;;;;13.90;7.13;;;16.20;91.80;;;;;;5035130;28;20055;-75
2021/09/03 06:47:17;;;;;;;12.82;7.15;;;16.20;91.80;;;;;;5033815;28;20052;-75
2021/09/03 06:49:43;;;;;;;13.95;7.53;;;16.30;91.80;;;;;;5033108;28;20041;-75
2021/09/03 06:52:10;;;;;;;16.45;7.25;;;16.30;91.80;;;;;;5034398;28;20029;-75
2021/09/03 06:54:37;;;;;;;13.63;6.93;;;16.30;91.80;;;;;;5032637;28;20032;-74
2021/09/03 06:57:03;;;;;;;14.20;6.68;;;16.40;91.80;;;;;;5032847;28;20033;-75
2021/09/03 06:59:29;;;;;;;16.15;7.82;;;16.40;91.80;;;;;;5033667;28;20425;-75
2021/09/03 07:01:55;;;;;;;15.38;7.43;;;16.40;91.80;;;;;;5034177;28;20173;-75
2021/09/03 07:04:21;;;;;;;16.05;7.53;;;16.50;91.80;;;;;;5033906;28;20049;-75
2021/09/03 07:06:47;;;;;;;13.25;6.13;;;16.60;91.80;;;;;;5033036;28;20074;-75
2021/09/03 07:09:13;;;;;;;13.60;6.97;;;16.60;91.80;;;;;;5034429;28;20021;-75
2021/09/03 07:11:39;;;;;;;13.80;6.85;;;16.60;91.80;;;;;;5033667;28;20037;-75
2021/09/03 07:14:05;;;;;;;11.35;6.75;;;16.70;91.80;;;;;;5034179;28;20027;-75
2021/09/03 07:16:32;;;;;;;14.02;7.45;;;16.70;91.80;;;;;;5031936;28;20429;-75
2021/09/03 07:19:02;;;;;;;14.07;7.20;;;16.70;91.80;;;;;;5032801;28;20066;-76
2021/09/03 07:21:28;;;;;;;14.60;7.22;;;16.80;91.80;;;;;;5033452;28;20120;-75
2021/09/03 07:23:53;;;;;;;14.43;7.05;;;16.80;91.70;;;;;;5034330;28;20388;-75
2021/09/03 07:26:19;;;;;;;14.68;7.50;;;16.80;91.70;;;;;;5032587;28;20381;-75
2021/09/03 07:28:45;;;;;;;14.77;6.75;;;16.90;91.70;;;;;;5033918;28;20036;-75
2021/09/03 07:31:11;;;;;;;13.73;6.35;;;16.90;91.70;;;;;;5033776;28;20061;-75
2021/09/03 07:33:36;;;;;;;11.63;4.95;;;17.00;91.70;;;;;;5033220;28;20531;-75
2021/09/03 07:36:02;;;;;;;12.98;6.70;;;17.00;91.70;;;;;;5033765;28;20048;-75
2021/09/03 07:38:29;;;;;;;13.48;7.53;;;17.00;91.70;;;;;;5033207;28;20057;-75
2021/09/03 07:40:55;;;;;;;16.50;7.72;;;17.10;91.70;;;;;;5033732;28;20481;-75
2021/09/03 07:43:21;;;;;;;12.30;6.47;;;17.10;91.70;;;;;;5033236;28;20026;-75
2021/09/03 07:45:46;;;;;;;15.77;6.60;;;17.20;91.60;;;;;;5033625;28;20033;-75
2021/09/03 07:48:12;;;;;;;12.63;6.00;;;17.20;91.60;;;;;;5033597;28;20025;-75
2021/09/03 07:50:38;;;;;;;11.20;6.63;;;17.30;91.60;;;;;;5033119;28;20404;-75
2021/09/03 07:53:05;;;;;;;14.60;6.75;;;17.20;91.60;;;;;;5033408;28;20458;-75
2021/09/03 07:55:33;;;;;;;11.48;5.85;;;17.30;91.60;;;;;;5032832;28;20109;-75
2021/09/03 07:57:59;;;;;;;12.82;7.20;;;17.40;91.60;;;;;;5033013;28;20397;-75
2021/09/03 08:00:24;;;;;;;11.48;5.90;;;17.40;91.50;;;;;;5031374;28;20021;-75
2021/09/03 08:02:50;;;;;;;11.82;6.32;;;17.50;91.80;;;;;;5033129;28;20104;-75
2021/09/03 08:05:16;;;;;;;14.30;6.85;;;17.50;91.40;;;;;;5031770;28;20031;-75
2021/09/03 08:07:42;;;;;;;14.60;6.28;;;17.60;91.40;;;;;;5032679;28;20026;-76
2021/09/03 08:10:13;;;;;;;13.23;6.25;;;17.60;91.30;;;;;;5033063;28;20043;-75
2021/09/03 08:12:40;;;;;;;12.27;5.43;;;17.60;91.30;;;;;;5032576;28;20289;-75
2021/09/03 08:15:10;;;;;;;14.07;6.20;;;17.70;91.30;;;;;;5033141;28;20049;-75
2021/09/03 08:17:36;;;;;;;14.83;6.10;;;17.80;91.30;;;;;;5032351;28;20045;-75
2021/09/03 08:20:03;;;;;;;12.77;6.47;;;17.80;91.20;;;;;;5032879;28;20268;-75
2021/09/03 08:22:29;;;;;;;11.77;5.32;;;17.80;91.20;;;;;;5032609;28;20025;-75
2021/09/03 08:24:55;;;;;;;14.13;6.78;;;17.80;91.20;;;;;;5031582;28;20416;-75
2021/09/03 08:27:21;;;;;;;11.70;6.25;;;17.90;91.20;;;;;;5032985;28;20083;-75
2021/09/03 08:29:47;;;;;;;11.90;6.15;;;18.00;91.20;;;;;;5031899;28;20040;-75
2021/09/03 08:32:13;;;;;;;11.55;6.00;;;18.00;91.10;;;;;;5031612;28;20022;-75
2021/09/03 08:34:39;;;;;;;9.20;5.35;;;18.00;91.10;;;;;;5030833;28;20119;-75
2021/09/03 08:37:05;;;;;;;12.05;5.30;;;18.10;91.10;;;;;;5032382;28;20076;-76
2021/09/03 08:39:31;;;;;;;14.38;4.82;;;18.10;91.10;;;;;;5029754;28;20041;-75
2021/09/03 08:41:56;;;;;;;11.57;4.88;;;18.20;91.10;;;;;;5031283;28;20068;-75
2021/09/03 08:44:22;;;;;;;10.23;5.40;;;18.20;91.00;;;;;;5031697;28;20025;-75
2021/09/03 08:46:48;;;;;;;14.25;5.60;;;18.20;91.00;;;;;;5032384;28;20030;-75
2021/09/03 08:49:14;;;;;;;11.00;5.57;;;18.30;91.00;;;;;;5032170;28;20355;-75
2021/09/03 08:51:40;;;;;;;12.55;6.30;;;18.30;90.90;;;;;;5031525;28;20109;-75
2021/09/03 08:54:05;;;;;;;10.40;4.68;;;18.40;90.90;;;;;;5032379;28;20025;-75
2021/09/03 08:56:31;;;;;;;11.70;5.38;;;18.40;90.90;;;;;;5030430;28;20033;-75
2021/09/03 08:58:57;;;;;;;13.00;5.28;;;18.50;90.90;;;;;;5030917;28;20068;-75
2021/09/03 09:01:23;;;;;;;11.55;5.95;;;18.50;90.90;;;;;;5032003;28;20057;-75
2021/09/03 09:03:51;;;;;;;13.73;5.57;;;18.50;90.80;;;;;;5032505;28;20025;-76
2021/09/03 09:06:22;;;;;;;9.88;5.88;;;18.60;90.80;;;;;;5032006;28;20108;-75
2021/09/03 09:09:04;;;;;;;;;;;18.70;90.80;;;;;;5032257;28;20036;-75
2021/09/03 09:11:32;;;;;;;11.18;5.28;;;18.70;90.70;;;;;;5031604;28;19913;-75
2021/09/03 09:14:08;;;;;;;11.05;5.47;;;18.70;90.60;;;;;;5030829;28;20017;-75
2021/09/03 09:16:34;;;;;;;11.50;5.20;;;18.80;90.60;;;;;;5031356;28;20041;-75
2021/09/03 09:19:04;;;;;;;11.40;5.30;;;18.80;90.50;;;;;;5031944;28;20032;-75
2021/09/03 09:21:36;;;;;;;10.70;5.20;;;18.90;90.50;;;;;;5031548;28;20017;-75
2021/09/03 09:24:03;;;;;;;10.02;5.05;;;18.90;90.50;;;;;;5031901;28;20044;-75
2021/09/03 09:26:57;;;;;;;11.00;5.20;;;18.90;90.40;;;;;;5031331;28;20520;-75
2021/09/03 09:29:24;;;;;;;10.55;5.25;;;19.00;90.40;;;;;;5031587;28;20028;-76
2021/09/03 09:31:55;;;;;;;9.65;5.15;;;19.10;90.40;;;;;;5030009;28;20116;-75
2021/09/03 09:34:22;;;;;;;;;;;19.20;90.20;;;;;;5030975;28;20026;-75
2021/09/03 09:36:53;;;;;;;9.00;3.60;;;19.20;90.00;;;;;;5029842;28;19911;-76
2021/09/03 09:39:24;;;;;;;9.40;4.50;;;19.30;89.90;;;;;;5031760;28;20032;-75
2021/09/03 09:41:59;;;;;;;8.43;4.50;;;19.30;89.90;;;;;;5029830;28;20034;-75
2021/09/03 09:44:33;;;;;;;11.20;5.57;;;19.30;89.90;;;;;;5030507;28;20260;-75
2021/09/03 09:47:12;;;;;;;7.28;3.55;;;19.40;89.90;;;;;;5029868;28;20500;-75
2021/09/03 09:49:39;;;;;;;10.30;5.03;;;19.40;89.80;;;;;;5032247;28;20025;-75
2021/09/03 09:52:06;;;;;;;10.30;5.03;;;19.40;89.80;;;;;;5035806;28;20045;-76
2021/09/03 09:54:33;;;;;;;8.25;4.82;;;19.50;89.70;;;;;;5035084;28;20025;-75
2021/09/03 09:57:01;;;;;;;8.65;4.88;;;19.60;89.30;;;;;;5035473;28;20377;-75
2021/09/03 09:59:29;;;;;;;9.35;4.50;;;19.70;88.80;;;;;;5035628;28;20032;-75
2021/09/03 10:01:57;;;;;;;8.93;4.28;;;19.80;88.50;;;;;;5035569;28;20026;-75
2021/09/03 10:04:28;;;;;;;8.80;4.55;;;19.90;88.40;;;;;;5035536;28;20163;-75
2021/09/03 10:06:57;;;;;;;7.88;4.88;;;19.90;88.30;;;;;;5035226;28;20511;-76
2021/09/03 10:09:24;;;;;;;10.98;5.05;;;20.00;88.20;;;;;;5035391;28;20025;-76
2021/09/03 10:11:57;;;;;;;10.82;5.03;;;20.00;88.10;;;;;;5033596;28;20021;-76
2021/09/03 10:14:27;;;;;;;9.82;4.53;;;20.10;87.80;;;;;;5035633;28;20053;-76
2021/09/03 10:16:54;;;;;;;6.78;3.05;;;20.10;87.80;;;;;;5034604;28;20092;-74
2021/09/03 10:19:35;;;;;;;11.95;4.43;;;20.20;87.60;;;;;;5035276;28;20029;-75
2021/09/03 10:22:05;;;;;;;;;;;20.20;87.60;;;;;;5035835;28;20361;-76
2021/09/03 10:24:31;;;;;;;10.35;4.07;;;20.20;87.70;;;;;;5035468;28;19912;-76
2021/09/03 10:26:58;;;;;;;9.98;4.78;;;20.20;87.60;;;;;;5036108;28;20037;-76
2021/09/03 10:29:31;;;;;;;7.97;4.13;;;20.30;87.50;;;;;;5035737;28;20030;-76
2021/09/03 10:32:06;;;;;;;9.48;4.53;;;20.30;87.40;;;;;;5034702;28;20026;-76
2021/09/03 10:34:41;;;;;;;6.40;3.47;;;20.40;87.10;;;;;;5035935;28;20033;-76
2021/09/03 10:37:18;;;;;;;7.00;4.00;;;20.40;87.00;;;;;;5034966;28;20109;-77
2021/09/03 10:40:04;;;;;;;8.73;4.25;;;20.50;86.70;;;;;;5033972;28;20032;-75
2021/09/03 10:42:57;;;;;;;9.60;3.63;;;20.60;86.40;;;;;;5034809;28;20021;-76
2021/09/03 10:45:45;;;;;;;9.90;3.83;;;20.60;86.10;;;;;;5034465;28;20032;-76
2021/09/03 10:48:12;;;;;;;6.70;3.95;;;20.70;85.90;;;;;;5034191;28;20025;-77
2021/09/03 10:50:41;;;;;;;10.30;4.43;;;20.80;85.70;;;;;;5034916;28;20021;-75
2021/09/03 10:53:10;;;;;;;7.95;4.45;;;20.90;85.50;;;;;;5037302;28;20029;-76
2021/09/03 10:55:59;;;;;;;9.50;4.97;;;20.90;85.40;;;;;;5035650;28;20107;-76
2021/09/03 10:58:48;;;;;;;6.07;3.63;;;20.90;85.20;;;;;;5035026;28;20025;-76
2021/09/03 11:01:26;;;;;;;7.18;3.78;;;21.00;85.00;;;;;;5034499;28;20025;-76
2021/09/03 11:03:59;;;;;;;8.50;3.97;;;21.00;84.80;;;;;;5032895;28;20030;-75
2021/09/03 11:06:24;;;;;;;8.18;3.80;;;21.10;84.60;;;;;;5035205;28;20021;-77
2021/09/03 11:08:55;;;;;;;8.82;3.80;;;21.10;84.50;;;;;;5033090;28;20032;-76
2021/09/03 11:11:32;;;;;;;8.52;4.18;;;21.30;84.20;;;;;;5033561;28;20114;-75
2021/09/03 11:14:01;;;;;;;9.90;4.47;;;21.30;84.00;;;;;;5034702;28;20112;-77
2021/09/03 11:16:32;;;;;;;7.80;4.03;;;21.50;83.70;;;;;;5034547;28;20489;-76
2021/09/03 11:19:08;;;;;;;11.35;4.43;;;21.50;83.30;;;;;;5033263;28;20033;-76
2021/09/03 11:21:56;;;;;;;11.43;4.10;;;21.60;83.20;;;;;;5032739;28;20025;-75
2021/09/03 11:24:24;;;;;;;8.45;3.70;;;21.60;83.00;;;;;;5034825;28;20026;-76
2021/09/03 11:26:52;;;;;;;7.88;3.75;;;21.70;83.10;;;;;;5034011;28;20416;-75
2021/09/03 11:29:23;;;;;;;7.80;3.80;;;21.70;83.00;;;;;;5034718;28;20477;-77
2021/09/03 11:31:59;;;;;;;7.90;4.53;;;21.80;83.00;;;;;;5034094;28;20017;-75
2021/09/03 11:34:43;;;;;;;7.22;4.18;;;21.80;82.90;;;;;;5033434;28;20021;-76
2021/09/03 11:37:10;;;;;;;8.55;3.75;;;22.00;82.80;;;;;;5033697;28;20121;-76
2021/09/03 11:39:36;;;;;;;7.32;4.30;;;22.00;82.60;;;;;;5034501;28;20021;-75
2021/09/03 11:42:02;;;;;;;8.25;4.55;;;22.20;82.50;;;;;;5034902;28;20022;-75
2021/09/03 11:44:27;;;;;;;12.07;4.22;;;22.20;82.20;;;;;;5035663;28;20040;-76
2021/09/03 11:46:53;;;;;;;9.80;4.20;;;22.30;82.00;;;;;;5032664;28;20422;-77
2021/09/03 11:49:23;;;;;;;9.05;4.50;;;22.40;81.70;;;;;;5034557;28;20025;-76
2021/09/03 11:52:05;;;;;;;8.55;4.72;;;22.60;81.30;;;;;;5033546;28;20025;-76
2021/09/03 11:54:31;;;;;;;6.18;3.53;;;22.70;81.10;;;;;;5033214;28;20044;-75
2021/09/03 11:56:58;;;;;;;7.60;3.17;;;22.80;81.10;;;;;;5033148;28;20386;-76
2021/09/03 11:59:24;;;;;;;6.55;3.30;;;22.80;81.00;;;;;;5032410;28;20033;-75
2021/09/03 12:02:05;;;;;;;5.85;3.90;;;23.00;81.00;;;;;;5031017;28;20028;-75
2021/09/03 12:04:31;;;;;;;9.80;4.07;;;23.10;80.40;;;;;;5033425;28;20029;-75
2021/09/03 12:06:57;;;;;;;6.72;4.03;;;23.20;80.30;;;;;;5032662;28;20040;-75
2021/09/03 12:09:35;;;;;;;7.78;3.85;;;23.30;80.30;;;;;;5033301;28;20125;-75
2021/09/03 12:12:01;;;;;;;8.05;4.03;;;23.40;79.70;;;;;;5032823;28;20033;-75
2021/09/03 12:14:27;;;;;;;6.72;3.63;;;23.40;79.40;;;;;;5033200;28;20021;-75
2021/09/03 12:16:53;;;;;;;9.45;3.75;;;23.50;79.20;;;;;;5032175;28;20124;-75
2021/09/03 12:19:23;;;;;;;8.93;4.32;;;23.50;79.10;;;;;;5033131;28;20026;-75
2021/09/03 12:21:49;;;;;;;;;;;23.50;78.80;;;;;;5032758;28;20021;-75
2021/09/03 12:24:16;;;;;;;8.05;4.50;;;23.50;79.00;;;;;;5031367;28;19951;-75
2021/09/03 12:26:50;;;;;;;7.30;4.00;;;23.50;79.60;;;;;;5032169;28;20022;-75
2021/09/03 12:29:28;;;;;;;6.95;4.10;;;23.50;79.00;;;;;;5032999;28;20124;-76
2021/09/03 12:31:59;;;;;;;7.53;3.97;;;23.50;78.80;;;;;;5032303;28;20022;-75
2021/09/03 12:34:27;;;;;;;8.30;4.50;;;23.50;78.70;;;;;;5032634;28;20030;-75
2021/09/03 12:37:00;;;;;;;6.40;3.28;;;23.60;78.60;;;;;;5031985;28;20013;-76
2021/09/03 12:39:26;;;;;;;6.38;3.45;;;23.50;78.50;;;;;;5032727;28;20116;-76
2021/09/03 12:41:53;;;;;;;9.10;3.83;;;23.50;78.30;;;;;;5031854;28;20448;-75